createdAt,value
2018-05-26T00:01:16.613Z,72.05
2018-05-26T00:03:44.143Z,72.26
2018-05-26T00:06:11.672Z,72.93
2018-05-26T00:08:39.184Z,73.40
2018-05-26T00:11:06.706Z,73.01
2018-05-26T00:13:34.281Z,73.84
2018-05-26T00:16:01.815Z,73.81
2018-05-26T00:18:29.401Z,73.34
2018-05-26T00:20:56.983Z,73.19
2018-05-26T00:23:24.499Z,72.93
2018-05-26T00:25:52.030Z,72.09
2018-05-26T00:28:19.536Z,71.54
2018-05-26T00:30:47.035Z,71.12
2018-05-26T00:33:14.568Z,71.05
2018-05-26T00:35:42.089Z,70.29
2018-05-26T00:38:09.612Z,70.26
2018-05-26T00:40:37.165Z,69.66
2018-05-26T00:43:04.725Z,69.76
2018-05-26T00:45:32.271Z,70.59
2018-05-26T00:47:59.796Z,70.23
2018-05-26T00:50:27.343Z,70.23
2018-05-26T00:52:54.870Z,70.36
2018-05-26T00:55:22.378Z,70.42
2018-05-26T00:57:49.932Z,70.89
2018-05-26T01:00:17.478Z,71.71
2018-05-26T01:02:44.987Z,72.10
2018-05-26T01:05:12.486Z,72.69
2018-05-26T01:07:40.017Z,73.14
2018-05-26T01:10:07.526Z,73.57
2018-05-26T01:12:35.031Z,73.70
2018-05-26T01:15:02.531Z,74.37
2018-05-26T01:17:30.126Z,74.51
2018-05-26T01:19:57.646Z,74.44
2018-05-26T01:22:25.173Z,74.13
2018-05-26T01:24:52.689Z,74.31
2018-05-26T01:27:20.212Z,74.36
2018-05-26T01:29:47.714Z,74.34
2018-05-26T01:32:15.236Z,73.88
2018-05-26T01:34:42.744Z,73.89
2018-05-26T01:37:10.273Z,73.70
2018-05-26T01:39:37.795Z,73.89
2018-05-26T01:42:05.312Z,73.86
2018-05-26T01:44:32.830Z,74.04
2018-05-26T01:47:00.400Z,74.24
2018-05-26T01:49:27.910Z,74.28
2018-05-26T01:51:55.428Z,74.28
2018-05-26T01:54:22.932Z,74.39
2018-05-26T01:56:50.523Z,74.46
2018-05-26T01:59:18.043Z,74.62
2018-05-26T02:01:45.582Z,74.79
2018-05-26T02:04:13.142Z,74.43
2018-05-26T02:06:40.703Z,74.50
2018-05-26T02:09:08.267Z,74.65
2018-05-26T02:11:35.816Z,74.55
2018-05-26T02:14:03.335Z,74.94
2018-05-26T02:16:30.858Z,75.15
2018-05-26T02:18:58.381Z,75.09
2018-05-26T02:21:25.927Z,75.39
2018-05-26T02:23:53.439Z,75.42
2018-05-26T02:26:20.958Z,75.04
2018-05-26T02:28:48.462Z,74.82
2018-05-26T02:31:16.017Z,75.02
2018-05-26T02:33:43.544Z,75.09
2018-05-26T02:36:11.100Z,75.41
2018-05-26T02:38:38.615Z,75.26
2018-05-26T02:41:06.162Z,75.69
2018-05-26T02:43:33.716Z,75.88
2018-05-26T02:46:01.274Z,75.77
2018-05-26T02:48:29.750Z,75.86
2018-05-26T02:50:57.267Z,76.03
2018-05-26T02:53:24.833Z,76.10
2018-05-26T02:55:52.365Z,76.22
2018-05-26T02:58:19.911Z,76.70
2018-05-26T03:00:47.473Z,76.48
2018-05-26T03:03:15.020Z,76.33
2018-05-26T03:05:48.215Z,76.70
2018-05-26T03:08:21.144Z,76.69
2018-05-26T03:10:54.260Z,76.46
2018-05-26T03:13:27.195Z,76.66
2018-05-26T03:16:13.443Z,76.52
2018-05-26T03:18:40.962Z,76.72
2018-05-26T03:21:08.526Z,76.41
2018-05-26T03:23:36.087Z,76.33
2018-05-26T03:26:03.620Z,76.44
2018-05-26T03:28:31.159Z,76.60
2018-05-26T03:30:58.721Z,76.45
2018-05-26T03:33:26.254Z,76.49
2018-05-26T03:35:53.773Z,76.40
2018-05-26T03:38:21.336Z,76.01
2018-05-26T03:40:48.849Z,75.72
2018-05-26T03:43:16.397Z,75.57
2018-05-26T03:45:44.288Z,75.49
2018-05-26T03:48:11.815Z,75.30
2018-05-26T03:50:39.388Z,75.21
2018-05-26T03:53:06.915Z,75.03
2018-05-26T03:55:46.252Z,74.85
2018-05-26T03:58:34.530Z,74.91
2018-05-26T04:01:02.044Z,74.58
2018-05-26T04:03:29.569Z,73.86
2018-05-26T04:05:57.229Z,73.75
2018-05-26T04:08:24.695Z,74.25
2018-05-26T04:10:52.216Z,74.18
2018-05-26T04:13:19.764Z,73.73
2018-05-26T04:15:47.278Z,73.83
2018-05-26T04:18:14.867Z,73.63
2018-05-26T04:20:42.438Z,73.41
2018-05-26T04:23:09.942Z,73.12
2018-05-26T04:25:37.467Z,72.44
2018-05-26T04:28:05.017Z,71.80
2018-05-26T04:30:32.576Z,71.87
2018-05-26T04:33:00.155Z,72.44
2018-05-26T04:35:27.772Z,72.91
2018-05-26T04:37:55.312Z,73.36
2018-05-26T04:40:22.837Z,73.55
2018-05-26T04:42:50.380Z,73.98
2018-05-26T04:47:44.759Z,73.87
2018-05-26T04:50:12.288Z,73.46
2018-05-26T04:52:39.817Z,73.21
2018-05-26T04:55:07.335Z,72.96
2018-05-26T04:57:34.845Z,72.67
2018-05-26T05:00:03.544Z,72.25
2018-05-26T05:02:31.096Z,71.83
2018-05-26T05:04:58.650Z,71.61
2018-05-26T05:07:26.184Z,71.35
2018-05-26T05:09:53.759Z,71.17
2018-05-26T05:12:21.316Z,70.63
2018-05-26T05:14:48.925Z,69.96
2018-05-26T05:17:16.496Z,69.04
2018-05-26T05:19:44.045Z,69.06
2018-05-26T05:22:11.555Z,68.76
2018-05-26T05:24:39.089Z,68.41
2018-05-26T05:27:06.652Z,67.67
2018-05-26T05:29:34.232Z,67.68
2018-05-26T05:32:01.759Z,67.18
2018-05-26T05:34:29.336Z,65.63
2018-05-26T05:36:57.599Z,64.66
2018-05-26T05:39:25.178Z,64.98
2018-05-26T05:41:52.693Z,65.07
2018-05-26T05:44:20.191Z,64.82
2018-05-26T05:46:47.953Z,64.02
2018-05-26T05:49:15.476Z,63.88
2018-05-26T05:51:43.017Z,63.19
2018-05-26T05:54:10.524Z,62.50
2018-05-26T05:56:38.899Z,62.17
2018-05-26T05:59:06.455Z,62.81
2018-05-26T06:01:34.016Z,61.36
2018-05-26T06:04:01.512Z,61.79
2018-05-26T06:06:29.068Z,61.10
2018-05-26T06:08:56.615Z,60.60
2018-05-26T06:11:24.141Z,60.46
2018-05-26T06:13:51.638Z,61.14
2018-05-26T06:16:19.199Z,59.94
2018-05-26T06:18:46.740Z,60.34
2018-05-26T06:21:14.276Z,58.85
2018-05-26T06:23:41.803Z,58.87
2018-05-26T06:26:09.350Z,58.52
2018-05-26T06:28:36.874Z,59.48
2018-05-26T06:31:05.268Z,58.96
2018-05-26T06:33:32.771Z,58.75
2018-05-26T06:36:00.299Z,58.34
2018-05-26T06:38:27.815Z,58.38
2018-05-26T06:40:55.340Z,57.38
2018-05-26T06:43:22.868Z,56.43
2018-05-26T06:45:50.373Z,56.71
2018-05-26T06:48:17.912Z,55.45
2018-05-26T06:50:45.414Z,55.42
2018-05-26T06:53:12.926Z,55.85
2018-05-26T06:55:40.451Z,55.39
2018-05-26T06:58:07.951Z,55.74
2018-05-26T07:00:35.455Z,55.73
2018-05-26T07:03:03.020Z,55.55
2018-05-26T07:05:30.525Z,55.39
2018-05-26T07:07:58.057Z,55.58
2018-05-26T07:10:25.634Z,55.89
2018-05-26T07:12:53.140Z,54.95
2018-05-26T07:15:20.636Z,55.25
2018-05-26T07:17:48.139Z,53.58
2018-05-26T07:20:15.661Z,53.78
2018-05-26T07:22:43.171Z,52.92
2018-05-26T07:25:10.689Z,52.43
2018-05-26T07:27:38.205Z,52.88
2018-05-26T07:30:05.729Z,52.73
2018-05-26T07:32:33.234Z,53.43
2018-05-26T07:35:00.750Z,52.54
2018-05-26T07:37:28.273Z,52.48
2018-05-26T07:39:55.787Z,52.48
2018-05-26T07:42:23.309Z,52.65
2018-05-26T07:44:50.860Z,52.28
2018-05-26T07:47:18.397Z,52.07
2018-05-26T07:49:45.979Z,52.01
2018-05-26T07:52:13.481Z,51.93
2018-05-26T07:54:40.995Z,51.26
2018-05-26T07:57:08.569Z,50.97
2018-05-26T07:59:36.058Z,51.02
2018-05-26T08:02:03.592Z,50.85
2018-05-26T08:04:31.103Z,52.30
2018-05-26T08:07:00.804Z,51.20
2018-05-26T08:09:29.117Z,50.88
2018-05-26T08:11:57.528Z,50.23
2018-05-26T08:14:25.066Z,49.79
2018-05-26T08:16:52.668Z,50.49
2018-05-26T08:19:20.166Z,50.80
2018-05-26T08:21:48.882Z,50.84
2018-05-26T08:24:16.383Z,50.56
2018-05-26T08:26:44.698Z,48.67
2018-05-26T08:29:12.206Z,49.03
2018-05-26T08:31:39.793Z,49.25
2018-05-26T08:34:07.309Z,48.75
2018-05-26T08:36:34.853Z,48.45
2018-05-26T08:39:02.463Z,49.26
2018-05-26T08:41:29.980Z,47.97
2018-05-26T08:43:57.522Z,48.63
2018-05-26T08:46:25.101Z,48.45
2018-05-26T08:48:52.611Z,47.51
2018-05-26T08:51:20.109Z,48.32
2018-05-26T08:53:47.641Z,47.15
2018-05-26T08:56:15.187Z,46.84
2018-05-26T08:58:43.489Z,47.23
2018-05-26T09:01:11.914Z,46.79
2018-05-26T09:03:39.487Z,46.15
2018-05-26T09:06:07.903Z,46.33
2018-05-26T09:08:35.426Z,45.89
2018-05-26T09:11:05.033Z,46.84
2018-05-26T09:13:32.548Z,46.77
2018-05-26T09:16:00.064Z,46.53
2018-05-26T09:18:27.650Z,45.93
2018-05-26T09:20:55.176Z,46.78
2018-05-26T09:23:22.763Z,46.93
2018-05-26T09:25:50.384Z,46.47
2018-05-26T09:28:18.280Z,46.38
2018-05-26T09:30:45.846Z,46.45
2018-05-26T09:33:14.391Z,46.07
2018-05-26T09:35:43.003Z,44.55
2018-05-26T09:38:11.381Z,45.24
2018-05-26T09:40:38.936Z,45.55
2018-05-26T09:43:07.155Z,44.42
2018-05-26T09:45:34.716Z,43.54
2018-05-26T09:48:02.249Z,44.00
2018-05-26T09:50:29.881Z,43.50
2018-05-26T09:52:57.482Z,44.43
2018-05-26T09:55:25.003Z,43.37
2018-05-26T09:57:52.539Z,43.47
2018-05-26T10:00:20.102Z,44.08
2018-05-26T10:02:47.634Z,42.39
2018-05-26T10:05:15.186Z,42.95
2018-05-26T10:07:42.748Z,44.16
2018-05-26T10:10:11.296Z,42.88
2018-05-26T10:12:38.802Z,42.78
2018-05-26T10:15:06.383Z,41.93
2018-05-26T10:17:33.961Z,42.20
2018-05-26T10:20:01.621Z,41.95
2018-05-26T10:22:29.152Z,42.29
2018-05-26T10:24:56.660Z,42.09
2018-05-26T10:27:24.207Z,41.40
2018-05-26T10:29:51.751Z,41.89
2018-05-26T10:32:19.343Z,41.16
2018-05-26T10:34:46.845Z,40.37
2018-05-26T10:37:14.415Z,40.01
2018-05-26T10:39:42.075Z,39.55
2018-05-26T10:42:09.583Z,39.67
2018-05-26T10:44:37.200Z,38.58
2018-05-26T10:47:04.790Z,39.25
2018-05-26T10:49:32.311Z,38.05
2018-05-26T10:51:59.893Z,38.83
2018-05-26T10:54:27.490Z,39.00
2018-05-26T10:56:55.759Z,38.45
2018-05-26T10:59:23.279Z,36.68
2018-05-26T11:01:50.806Z,36.28
2018-05-26T11:04:18.375Z,35.70
2018-05-26T11:06:47.657Z,36.75
2018-05-26T11:09:15.240Z,35.97
2018-05-26T11:11:42.828Z,35.99
2018-05-26T11:14:10.352Z,35.69
2018-05-26T11:16:37.936Z,36.93
2018-05-26T11:19:05.533Z,35.95
2018-05-26T11:21:33.013Z,35.60
2018-05-26T11:24:00.742Z,34.96
2018-05-26T11:26:28.048Z,34.82
2018-05-26T11:28:55.586Z,32.94
2018-05-26T11:31:23.087Z,33.10
2018-05-26T11:33:50.829Z,33.18
2018-05-26T11:36:18.372Z,32.99
2018-05-26T11:38:46.619Z,32.57
2018-05-26T11:41:14.238Z,32.82
2018-05-26T11:43:41.818Z,32.42
2018-05-26T11:46:09.349Z,31.92
2018-05-26T11:48:36.938Z,30.11
2018-05-26T11:51:04.476Z,31.27
2018-05-26T11:53:32.000Z,31.54
2018-05-26T11:55:59.552Z,31.42
2018-05-26T11:58:27.060Z,30.77
2018-05-26T12:00:54.560Z,30.56
2018-05-26T12:03:22.081Z,30.15
2018-05-26T12:05:49.625Z,30.20
2018-05-26T12:08:19.213Z,30.49
2018-05-26T12:10:46.770Z,30.97
2018-05-26T12:13:14.375Z,30.22
2018-05-26T12:15:41.944Z,32.48
2018-05-26T12:18:09.453Z,33.81
2018-05-26T12:20:38.039Z,35.17
2018-05-26T12:23:05.609Z,35.25
2018-05-26T12:25:34.156Z,34.35
2018-05-26T12:28:01.689Z,34.42
2018-05-26T12:30:29.246Z,35.19
2018-05-26T12:32:56.779Z,35.61
2018-05-26T12:35:24.342Z,35.62
2018-05-26T12:37:51.889Z,36.55
2018-05-26T12:40:19.449Z,37.79
2018-05-26T12:42:47.060Z,39.21
2018-05-26T12:45:14.582Z,39.41
2018-05-26T12:47:42.196Z,38.96
2018-05-26T12:50:09.710Z,39.10
2018-05-26T12:52:37.258Z,39.52
2018-05-26T12:55:04.829Z,39.62
2018-05-26T12:57:33.198Z,39.61
2018-05-26T13:00:00.732Z,39.09
2018-05-26T13:02:28.246Z,39.65
2018-05-26T13:04:55.793Z,40.59
2018-05-26T13:07:23.334Z,39.83
2018-05-26T13:09:50.831Z,38.95
2018-05-26T13:12:18.385Z,37.79
2018-05-26T13:14:45.924Z,37.76
2018-05-26T13:17:13.435Z,35.33
2018-05-26T13:19:40.954Z,34.32
2018-05-26T13:22:08.521Z,33.35
2018-05-26T13:24:36.039Z,33.83
2018-05-26T13:27:03.586Z,33.03
2018-05-26T13:29:31.082Z,34.16
2018-05-26T13:31:58.626Z,32.19
2018-05-26T13:34:26.139Z,32.34
2018-05-26T13:36:54.807Z,31.66
2018-05-26T13:39:23.421Z,32.15
2018-05-26T13:41:52.073Z,32.33
2018-05-26T13:44:19.614Z,31.92
2018-05-26T13:46:47.127Z,31.65
2018-05-26T13:49:14.679Z,31.80
2018-05-26T13:51:42.160Z,31.44
2018-05-26T13:54:09.694Z,31.04
2018-05-26T13:56:37.201Z,31.16
2018-05-26T13:59:04.710Z,31.61
2018-05-26T14:01:32.234Z,32.06
2018-05-26T14:03:59.758Z,31.44
2018-05-26T14:06:27.297Z,31.72
2018-05-26T14:08:54.821Z,30.52
2018-05-26T14:11:22.360Z,29.63
2018-05-26T14:13:49.924Z,30.47
2018-05-26T14:16:17.452Z,30.00
2018-05-26T14:18:44.972Z,30.55
2018-05-26T14:21:12.486Z,29.91
2018-05-26T14:23:40.042Z,31.06
2018-05-26T14:26:07.560Z,31.41
2018-05-26T14:28:35.251Z,31.24
2018-05-26T14:31:02.854Z,30.45
2018-05-26T14:33:30.546Z,30.19
2018-05-26T14:35:58.210Z,30.32
2018-05-26T14:38:25.757Z,30.49
2018-05-26T14:40:53.305Z,29.63
2018-05-26T14:43:20.821Z,30.70
2018-05-26T14:45:48.359Z,30.49
2018-05-26T14:48:15.867Z,30.84
2018-05-26T14:50:43.400Z,31.02
2018-05-26T14:53:10.924Z,30.63
2018-05-26T14:55:38.460Z,29.76
2018-05-26T14:58:05.967Z,30.67
2018-05-26T15:00:33.467Z,29.46
2018-05-26T15:03:01.008Z,29.92
2018-05-26T15:05:28.533Z,30.04
2018-05-26T15:07:56.061Z,30.28
2018-05-26T15:10:23.608Z,30.24
2018-05-26T15:12:51.259Z,30.20
2018-05-26T15:15:18.728Z,30.47
2018-05-26T15:17:46.243Z,30.36
2018-05-26T15:20:13.750Z,30.59
2018-05-26T15:22:42.081Z,30.84
2018-05-26T15:25:09.615Z,30.86
2018-05-26T15:27:37.123Z,31.32
2018-05-26T15:30:06.079Z,31.08
2018-05-26T15:32:33.577Z,32.17
2018-05-26T15:35:01.103Z,31.96
2018-05-26T15:37:28.624Z,31.58
2018-05-26T15:39:56.204Z,31.61
2018-05-26T15:42:23.715Z,32.13
2018-05-26T15:44:52.123Z,32.17
2018-05-26T15:47:19.643Z,31.96
2018-05-26T15:49:47.150Z,32.18
2018-05-26T15:52:14.650Z,32.27
2018-05-26T15:54:42.186Z,32.33
2018-05-26T15:57:09.704Z,32.72
2018-05-26T15:59:37.244Z,32.65
2018-05-26T16:02:05.728Z,32.37
2018-05-26T16:04:33.232Z,32.61
2018-05-26T16:07:00.788Z,32.85
2018-05-26T16:09:28.286Z,32.83
2018-05-26T16:11:55.818Z,33.47
2018-05-26T16:14:23.326Z,34.02
2018-05-26T16:16:50.829Z,33.96
2018-05-26T16:19:18.374Z,34.06
2018-05-26T16:21:45.925Z,33.94
2018-05-26T16:24:13.511Z,34.59
2018-05-26T16:26:41.006Z,34.25
2018-05-26T16:29:08.552Z,34.50
2018-05-26T16:31:36.075Z,34.91
2018-05-26T16:34:03.597Z,35.34
2018-05-26T16:36:31.165Z,35.79
2018-05-26T16:38:58.667Z,35.71
2018-05-26T16:41:26.204Z,38.06
2018-05-26T16:43:53.716Z,39.78
2018-05-26T16:46:21.229Z,41.82
2018-05-26T16:48:48.748Z,42.14
2018-05-26T16:51:16.258Z,42.91
2018-05-26T16:53:43.789Z,43.83
2018-05-26T16:56:11.306Z,43.42
2018-05-26T16:58:38.911Z,42.99
2018-05-26T17:01:06.494Z,43.42
2018-05-26T17:03:33.990Z,43.53
2018-05-26T17:06:01.543Z,43.62
2018-05-26T17:08:29.062Z,43.76
2018-05-26T17:10:56.562Z,43.41
2018-05-26T17:13:24.147Z,43.66
2018-05-26T17:15:52.395Z,43.80
2018-05-26T17:18:19.949Z,44.15
2018-05-26T17:20:47.544Z,44.50
2018-05-26T17:23:15.169Z,44.67
2018-05-26T17:25:42.835Z,44.98
2018-05-26T17:28:10.341Z,45.24
2018-05-26T17:30:38.925Z,44.95
2018-05-26T17:33:06.524Z,45.26
2018-05-26T17:35:35.011Z,45.41
2018-05-26T17:38:02.541Z,45.65
2018-05-26T17:40:32.290Z,46.03
2018-05-26T17:42:59.818Z,46.11
2018-05-26T17:45:27.336Z,46.33
2018-05-26T17:47:54.966Z,46.66
2018-05-26T17:50:22.480Z,46.97
2018-05-26T17:52:50.030Z,47.54
2018-05-26T17:55:17.601Z,47.41
2018-05-26T17:57:45.130Z,47.71
2018-05-26T18:00:12.799Z,48.00
2018-05-26T18:02:40.376Z,48.31
2018-05-26T18:05:07.872Z,48.67
2018-05-26T18:07:35.370Z,48.83
2018-05-26T18:10:02.867Z,49.26
2018-05-26T18:12:32.533Z,49.89
2018-05-26T18:15:00.062Z,49.89
2018-05-26T18:17:27.613Z,49.77
2018-05-26T18:19:55.118Z,50.15
2018-05-26T18:22:23.517Z,50.14
2018-05-26T18:24:51.102Z,50.10
2018-05-26T18:27:18.655Z,50.06
2018-05-26T18:29:46.160Z,49.98
2018-05-26T18:32:13.751Z,49.99
2018-05-26T18:34:41.247Z,50.22
2018-05-26T18:37:08.834Z,50.35
2018-05-26T18:39:36.342Z,50.63
2018-05-26T18:42:03.883Z,50.89
2018-05-26T18:44:31.378Z,51.34
2018-05-26T18:46:58.879Z,52.06
2018-05-26T18:49:26.419Z,52.20
2018-05-26T18:51:53.940Z,52.59
2018-05-26T18:54:21.456Z,52.97
2018-05-26T18:56:48.981Z,53.52
2018-05-26T18:59:16.564Z,54.13
2018-05-26T19:01:44.113Z,54.36
2018-05-26T19:04:11.660Z,54.56
2018-05-26T19:06:39.238Z,54.73
2018-05-26T19:09:06.706Z,54.58
2018-05-26T19:11:34.259Z,54.90
2018-05-26T19:14:01.805Z,54.78
2018-05-26T19:16:29.305Z,54.95
2018-05-26T19:18:56.815Z,55.05
2018-05-26T19:21:24.337Z,55.25
2018-05-26T19:23:51.884Z,55.61
2018-05-26T19:26:19.399Z,55.65
2018-05-26T19:28:46.932Z,55.59
2018-05-26T19:31:14.446Z,55.51
2018-05-26T19:33:41.993Z,55.53
2018-05-26T19:36:09.512Z,55.62
2018-05-26T19:38:37.018Z,55.87
2018-05-26T19:41:04.552Z,55.64
2018-05-26T19:43:32.040Z,56.01
2018-05-26T19:45:59.557Z,56.12
2018-05-26T19:48:27.080Z,56.25
2018-05-26T19:50:54.574Z,56.32
2018-05-26T19:53:22.148Z,56.43
2018-05-26T19:55:49.674Z,56.51
2018-05-26T19:58:17.224Z,56.68
2018-05-26T20:00:44.754Z,56.50
2018-05-26T20:03:12.267Z,56.47
2018-05-26T20:05:39.791Z,56.66
2018-05-26T20:08:07.303Z,56.60
2018-05-26T20:10:34.815Z,56.77
2018-05-26T20:13:02.338Z,57.00
2018-05-26T20:15:29.845Z,56.65
2018-05-26T20:17:57.436Z,56.60
2018-05-26T20:20:24.921Z,57.08
2018-05-26T20:22:52.432Z,57.20
2018-05-26T20:25:19.943Z,57.32
2018-05-26T20:27:47.457Z,57.20
2018-05-26T20:30:14.982Z,57.31
2018-05-26T20:32:42.479Z,57.17
2018-05-26T20:35:11.527Z,57.32
2018-05-26T20:37:39.116Z,57.46
2018-05-26T20:40:06.627Z,57.83
2018-05-26T20:42:34.170Z,58.50
2018-05-26T20:45:01.684Z,58.45
2018-05-26T20:47:29.215Z,58.05
2018-05-26T20:49:56.727Z,58.65
2018-05-26T20:52:24.219Z,58.32
2018-05-26T20:54:51.772Z,58.38
2018-05-26T20:57:19.284Z,58.18
2018-05-26T20:59:47.003Z,58.42
2018-05-26T21:02:14.535Z,58.39
2018-05-26T21:04:42.079Z,58.67
2018-05-26T21:07:09.635Z,58.54
2018-05-26T21:09:37.179Z,58.64
2018-05-26T21:12:04.704Z,59.01
2018-05-26T21:14:32.215Z,59.23
2018-05-26T21:16:59.743Z,59.39
2018-05-26T21:19:27.300Z,59.30
2018-05-26T21:21:54.808Z,60.03
2018-05-26T21:24:22.315Z,60.00
2018-05-26T21:26:49.828Z,59.79
2018-05-26T21:29:17.349Z,60.05
2018-05-26T21:31:44.862Z,60.43
2018-05-26T21:34:12.366Z,60.14
2018-05-26T21:36:39.902Z,60.30
2018-05-26T21:39:07.455Z,60.63
2018-05-26T21:41:34.977Z,60.83
2018-05-26T21:44:02.503Z,61.18
2018-05-26T21:46:30.020Z,60.59
2018-05-26T21:48:57.519Z,60.16
2018-05-26T21:51:25.087Z,60.89
2018-05-26T21:53:52.603Z,60.99
2018-05-26T21:56:20.178Z,61.49
2018-05-26T21:58:47.700Z,61.59
2018-05-26T22:01:15.271Z,61.77
2018-05-26T22:03:42.787Z,61.50
2018-05-26T22:06:10.409Z,61.73
2018-05-26T22:08:37.899Z,61.59
2018-05-26T22:11:05.393Z,61.52
2018-05-26T22:13:32.908Z,61.40
2018-05-26T22:16:00.442Z,61.87
2018-05-26T22:18:27.962Z,61.66
2018-05-26T22:20:55.499Z,61.67
2018-05-26T22:23:23.003Z,61.67
2018-05-26T22:25:50.562Z,62.06
2018-05-26T22:28:18.082Z,61.95
2018-05-26T22:30:45.628Z,62.17
2018-05-26T22:33:13.135Z,62.64
2018-05-26T22:35:40.731Z,62.76
2018-05-26T22:38:08.244Z,62.33
2018-05-26T22:40:35.763Z,62.25
2018-05-26T22:43:03.308Z,61.98
2018-05-26T22:45:30.844Z,61.75
2018-05-26T22:47:58.391Z,61.35
2018-05-26T22:50:25.932Z,61.50
2018-05-26T22:52:53.447Z,61.12
2018-05-26T22:55:20.948Z,60.97
2018-05-26T22:57:48.525Z,61.07
2018-05-26T23:00:16.107Z,61.34
2018-05-26T23:02:43.639Z,61.21
2018-05-26T23:05:11.143Z,61.40
2018-05-26T23:07:38.713Z,61.64
2018-05-26T23:10:06.371Z,61.61
2018-05-26T23:12:33.938Z,61.61
2018-05-26T23:15:01.444Z,61.91
2018-05-26T23:17:28.991Z,62.24
2018-05-26T23:19:56.497Z,61.71
2018-05-26T23:22:24.021Z,61.81
2018-05-26T23:24:51.578Z,61.87
2018-05-26T23:27:19.099Z,61.87
2018-05-26T23:29:46.687Z,62.21
2018-05-26T23:32:14.239Z,61.88
2018-05-26T23:34:41.747Z,62.44
2018-05-26T23:37:09.259Z,61.82
2018-05-26T23:39:36.766Z,62.01
2018-05-26T23:42:04.323Z,62.41
2018-05-26T23:44:31.864Z,62.62
2018-05-26T23:46:59.461Z,63.30
2018-05-26T23:49:26.963Z,63.20
2018-05-26T23:51:54.495Z,62.95
2018-05-26T23:54:22.035Z,63.48
2018-05-26T23:56:49.546Z,63.78
2018-05-26T23:59:17.076Z,63.26
